createdAt,value
2022-12-15T00:03:38.754Z,25.40
2022-12-15T00:09:01.392Z,23.80
2022-12-15T00:14:23.644Z,20.20
2022-12-15T00:19:46.001Z,26.20
2022-12-15T00:25:07.906Z,22.60
2022-12-15T00:30:30.614Z,23.10
2022-12-15T00:35:52.971Z,25.70
2022-12-15T00:40:59.823Z,22.90
2022-12-15T00:46:23.023Z,25.20
2022-12-15T00:51:45.609Z,23.20
2022-12-15T00:57:07.865Z,25.20
2022-12-15T01:02:29.950Z,24.50
2022-12-15T01:07:52.369Z,25.50
2022-12-15T01:13:14.421Z,25.60
2022-12-15T01:18:36.781Z,27.40
2022-12-15T01:23:41.319Z,27.60
2022-12-15T01:28:44.631Z,22.60
2022-12-15T01:33:47.938Z,17.90
2022-12-15T01:38:54.399Z,26.30
2022-12-15T01:44:24.972Z,25.80
2022-12-15T01:49:31.398Z,25.00
2022-12-15T01:54:45.320Z,24.00
2022-12-15T01:59:56.244Z,29.00
2022-12-15T02:05:01.257Z,20.40
2022-12-15T02:10:07.586Z,25.90
2022-12-15T02:15:48.425Z,26.50
2022-12-15T02:21:05.974Z,22.20
2022-12-15T02:26:26.794Z,23.10
2022-12-15T02:31:50.518Z,23.40
2022-12-15T02:37:06.694Z,23.80
2022-12-15T02:42:11.622Z,21.50
2022-12-15T02:47:14.850Z,21.90
2022-12-15T02:52:36.799Z,21.80
2022-12-15T02:57:49.223Z,21.90
2022-12-15T03:02:55.945Z,22.60
2022-12-15T03:07:59.531Z,21.80
2022-12-15T03:13:02.943Z,17.20
2022-12-15T03:18:06.462Z,22.30
2022-12-15T03:23:09.973Z,21.40
2022-12-15T03:28:13.492Z,19.50
2022-12-15T03:33:17.108Z,21.20
2022-12-15T03:38:21.343Z,21.40
2022-12-15T03:48:27.862Z,22.20
2022-12-15T03:53:31.612Z,23.30
2022-12-15T03:58:35.096Z,25.00
2022-12-15T04:03:38.674Z,22.70
2022-12-15T04:08:42.023Z,24.20
2022-12-15T04:13:45.949Z,18.80
2022-12-15T04:19:09.243Z,21.30
2022-12-15T04:24:31.689Z,21.70
2022-12-15T04:29:54.045Z,20.90
2022-12-15T04:35:16.298Z,20.90
2022-12-15T04:40:38.554Z,23.20
2022-12-15T04:46:00.634Z,22.20
2022-12-15T04:51:23.947Z,23.20
2022-12-15T04:56:46.244Z,23.80
2022-12-15T05:02:12.214Z,27.00
2022-12-15T05:07:34.946Z,25.50
2022-12-15T05:12:57.308Z,23.60
2022-12-15T05:18:19.767Z,24.10
2022-12-15T05:30:32.543Z,22.30
2022-12-15T05:35:35.960Z,23.30
2022-12-15T05:40:39.369Z,23.10
2022-12-15T05:45:42.781Z,23.40
2022-12-15T05:50:46.100Z,23.60
2022-12-15T05:55:49.507Z,23.20
2022-12-15T06:00:52.821Z,22.00
2022-12-15T06:05:56.738Z,21.10
2022-12-15T06:11:00.772Z,25.60
2022-12-15T06:16:07.511Z,27.60
2022-12-15T06:21:14.153Z,23.00
2022-12-15T06:26:23.314Z,21.40
2022-12-15T06:31:26.952Z,22.40
2022-12-15T06:36:33.401Z,25.90
2022-12-15T06:41:37.734Z,25.60
2022-12-15T06:46:41.061Z,28.00
2022-12-15T06:51:45.337Z,21.30
2022-12-15T07:01:53.774Z,19.10
2022-12-15T07:06:57.361Z,19.60
2022-12-15T07:12:00.980Z,23.70
2022-12-15T07:17:04.288Z,19.90
2022-12-15T07:22:07.703Z,19.90
2022-12-15T07:27:10.958Z,22.90
2022-12-15T07:32:15.961Z,20.60
2022-12-15T07:37:19.168Z,28.20
2022-12-15T07:42:22.788Z,42.80
2022-12-15T07:47:28.182Z,42.40
2022-12-15T07:52:31.562Z,50.30
2022-12-15T07:57:34.973Z,60.20
2022-12-15T08:02:41.707Z,52.60
2022-12-15T08:07:45.179Z,62.80
2022-12-15T08:12:48.488Z,39.20
2022-12-15T08:17:52.008Z,33.90
2022-12-15T08:22:55.321Z,27.80
2022-12-15T08:27:58.835Z,26.30
2022-12-15T08:33:03.478Z,22.70
2022-12-15T08:38:06.888Z,33.20
2022-12-15T08:43:10.302Z,26.50
2022-12-15T08:48:13.710Z,35.90
2022-12-15T08:53:32.579Z,37.30
2022-12-15T08:58:36.922Z,38.10
2022-12-15T09:08:44.935Z,35.80
2022-12-15T09:13:53.822Z,33.20
2022-12-15T09:18:59.323Z,22.70
2022-12-15T09:24:03.920Z,27.60
2022-12-15T09:29:07.541Z,29.90
2022-12-15T09:34:16.105Z,22.70
2022-12-15T09:39:19.792Z,33.20
2022-12-15T09:44:25.929Z,31.80
2022-12-15T09:49:44.233Z,33.30
2022-12-15T09:54:47.755Z,28.10
2022-12-15T09:59:51.262Z,29.10
2022-12-15T10:05:02.459Z,30.10
2022-12-15T10:10:12.122Z,32.50
2022-12-15T10:15:27.063Z,30.80
2022-12-15T10:20:32.871Z,31.50
2022-12-15T10:25:36.284Z,29.30
2022-12-15T10:31:08.329Z,23.30
2022-12-15T10:36:16.295Z,28.90
2022-12-15T10:41:22.059Z,32.20
2022-12-15T10:46:30.769Z,29.30
2022-12-15T10:51:48.543Z,24.80
2022-12-15T10:56:53.491Z,24.90
2022-12-15T11:02:26.373Z,19.50
2022-12-15T11:07:42.638Z,20.30
2022-12-15T11:12:59.132Z,22.00
2022-12-15T11:18:06.436Z,22.20
2022-12-15T11:23:36.985Z,27.10
2022-12-15T11:28:51.252Z,28.10
2022-12-15T11:33:55.179Z,26.60
2022-12-15T11:39:40.473Z,24.90
2022-12-15T11:45:08.264Z,21.20
2022-12-15T11:50:26.826Z,22.80
2022-12-15T11:56:02.187Z,23.30
2022-12-15T12:01:11.025Z,25.00
2022-12-15T12:06:40.250Z,25.10
2022-12-15T12:12:05.164Z,27.60
2022-12-15T12:17:21.478Z,26.80
2022-12-15T12:22:57.861Z,28.90
2022-12-15T12:28:21.038Z,29.50
2022-12-15T12:33:46.058Z,30.90
2022-12-15T12:38:56.436Z,30.30
2022-12-15T12:44:09.064Z,29.10
2022-12-15T12:49:33.674Z,30.50
2022-12-15T13:00:18.216Z,28.20
2022-12-15T13:05:32.554Z,32.80
2022-12-15T13:10:40.576Z,33.00
2022-12-15T13:15:50.919Z,35.40
2022-12-15T13:20:57.587Z,32.10
2022-12-15T13:26:12.012Z,33.30
2022-12-15T13:31:21.740Z,30.70
2022-12-15T13:36:39.522Z,31.70
2022-12-15T13:42:23.533Z,34.20
2022-12-15T13:47:26.501Z,36.20
2022-12-15T13:53:17.329Z,33.30
2022-12-15T13:58:16.431Z,34.40
2022-12-15T14:03:20.305Z,39.20
2022-12-15T14:08:26.732Z,34.30
2022-12-15T14:13:36.526Z,36.40
2022-12-15T14:18:42.165Z,36.50
2022-12-15T14:24:19.262Z,35.20
2022-12-15T14:29:11.855Z,37.20
2022-12-15T14:34:23.941Z,38.60
2022-12-15T14:39:38.003Z,34.60
2022-12-15T14:44:49.951Z,41.10
2022-12-15T14:49:57.295Z,33.00
2022-12-15T14:55:03.528Z,42.00
2022-12-15T15:00:30.575Z,43.40
2022-12-15T15:05:34.114Z,40.20
2022-12-15T15:10:39.031Z,43.10
2022-12-15T15:15:42.753Z,44.30
2022-12-15T15:20:58.866Z,43.50
2022-12-15T15:26:04.836Z,40.30
2022-12-15T15:31:41.061Z,34.80
2022-12-15T15:36:45.361Z,42.20
2022-12-15T15:41:48.739Z,28.40
2022-12-15T15:46:52.897Z,43.10
2022-12-15T15:57:00.137Z,41.10
2022-12-15T16:02:03.783Z,43.10
2022-12-15T16:12:42.647Z,43.80
2022-12-15T16:17:47.988Z,40.90
2022-12-15T16:22:57.850Z,36.40
2022-12-15T16:28:01.621Z,40.00
2022-12-15T16:33:05.085Z,33.00
2022-12-15T16:38:31.355Z,36.30
2022-12-15T16:43:39.234Z,32.70
2022-12-15T16:48:45.221Z,35.00
2022-12-15T16:53:48.637Z,28.40
2022-12-15T16:58:57.497Z,34.50
2022-12-15T17:04:12.848Z,23.30
2022-12-15T17:09:23.871Z,32.20
2022-12-15T17:14:27.280Z,27.70
2022-12-15T17:19:30.594Z,34.30
2022-12-15T17:24:34.306Z,35.40
2022-12-15T17:29:37.822Z,36.00
2022-12-15T17:34:41.235Z,34.60
2022-12-15T17:39:51.247Z,38.20
2022-12-15T17:44:55.074Z,38.70
2022-12-15T17:49:58.548Z,39.40
2022-12-15T17:55:03.997Z,39.10
2022-12-15T18:00:44.451Z,41.60
2022-12-15T18:05:52.813Z,39.80
2022-12-15T18:10:58.171Z,39.20
2022-12-15T18:16:04.512Z,35.30
2022-12-15T18:21:14.474Z,37.80
2022-12-15T18:26:17.833Z,40.20
2022-12-15T18:31:29.445Z,29.00
2022-12-15T18:36:32.848Z,41.00
2022-12-15T18:41:36.464Z,38.60
2022-12-15T18:46:44.684Z,23.00
2022-12-15T18:51:51.282Z,36.50
2022-12-15T18:56:54.873Z,37.70
2022-12-15T19:01:58.429Z,39.40
2022-12-15T19:07:06.842Z,37.10
2022-12-15T19:12:19.371Z,34.80
2022-12-15T19:17:43.199Z,31.00
2022-12-15T19:22:48.930Z,38.20
2022-12-15T19:28:21.087Z,36.40
2022-12-15T19:33:24.597Z,41.90
2022-12-15T19:38:32.313Z,44.50
2022-12-15T19:43:36.140Z,43.40
2022-12-15T19:53:44.088Z,40.00
2022-12-15T20:03:53.479Z,43.30
2022-12-15T20:08:57.194Z,45.00
2022-12-15T20:14:02.248Z,49.40
2022-12-15T20:19:05.868Z,45.10
2022-12-15T20:24:20.443Z,34.70
2022-12-15T20:29:28.677Z,33.70
2022-12-15T20:34:31.974Z,40.40
2022-12-15T20:39:35.288Z,22.80
2022-12-15T20:44:38.699Z,37.20
2022-12-15T20:49:42.012Z,28.80
2022-12-15T20:54:45.323Z,37.80
2022-12-15T20:59:48.733Z,38.10
2022-12-15T21:04:52.045Z,33.80
2022-12-15T21:09:55.458Z,33.30
2022-12-15T21:14:58.767Z,34.80
2022-12-15T21:20:02.797Z,37.10
2022-12-15T21:25:17.062Z,37.20
2022-12-15T21:35:30.182Z,29.40
2022-12-15T21:40:35.391Z,36.50
2022-12-15T21:45:38.907Z,38.70
2022-12-15T21:50:44.813Z,38.10
2022-12-15T21:55:48.090Z,37.50
2022-12-15T22:00:51.501Z,36.00
2022-12-15T22:05:54.814Z,38.20
2022-12-15T22:10:58.228Z,34.00
2022-12-15T22:16:01.617Z,33.50
2022-12-15T22:21:05.356Z,33.70
2022-12-15T22:26:27.308Z,31.40
2022-12-15T22:31:30.676Z,33.70
2022-12-15T22:36:34.132Z,35.10
2022-12-15T22:41:42.789Z,32.10
2022-12-15T22:46:47.050Z,35.60
2022-12-15T22:57:06.626Z,34.00
2022-12-15T23:02:11.190Z,36.10
2022-12-15T23:07:14.879Z,41.50
2022-12-15T23:12:18.197Z,39.90
2022-12-15T23:17:21.609Z,32.90
2022-12-15T23:22:24.920Z,43.50
2022-12-15T23:27:28.334Z,37.50
2022-12-15T23:32:31.749Z,44.00
2022-12-15T23:37:35.265Z,44.50
2022-12-15T23:42:38.675Z,45.90
2022-12-15T23:47:42.293Z,41.70
2022-12-15T23:52:50.268Z,44.40
2022-12-15T23:57:59.256Z,45.40
